Time,TemperatureF,DewpointF,PressureIn,WindDirection,WindDirectionDegrees,WindSpeedMPH,WindSpeedGustMPH,Humidity,HourlyPrecipIn,Conditions,Clouds,dailyrainin,SoftwareType,DateUTC
2013-02-25 00:00:00,51.3,25.9,30.23,ENE,59,2.7,9.7,37,0.00,,CLR,0.00,VWS V14.01,2013-02-25 08:00:00,
2013-02-25 00:10:00,50.5,24.6,30.23,North,356,0.0,7.5,36,0.00,,CLR,0.00,VWS V14.01,2013-02-25 08:10:00,
2013-02-25 00:20:00,50.2,24.3,30.26,North,0,0.0,4.3,36,0.00,,CLR,0.00,VWS V14.01,2013-02-25 08:20:00,
2013-02-25 00:30:00,49.3,24.1,30.26,SSW,198,2.7,7.0,37,0.00,,CLR,0.00,VWS V14.01,2013-02-25 08:30:00,
2013-02-25 00:40:00,48.2,23.2,30.26,South,177,0.0,3.8,37,0.00,,CLR,0.00,VWS V14.01,2013-02-25 08:40:00,
2013-02-25 00:50:00,47.3,23.0,30.26,NNW,337,3.8,4.3,38,0.00,,CLR,0.00,VWS V14.01,2013-02-25 08:50:00,
2013-02-25 01:00:00,46.2,22.6,30.26,NW,320,6.4,7.0,39,0.00,,CLR,0.00,VWS V14.01,2013-02-25 09:00:00,
2013-02-25 01:10:00,46.4,22.8,30.26,NNW,332,4.3,9.1,39,0.00,,CLR,0.00,VWS V14.01,2013-02-25 09:10:00,
2013-02-25 01:20:00,46.4,22.8,30.26,NW,318,4.3,5.9,39,0.00,,CLR,0.00,VWS V14.01,2013-02-25 09:20:00,
2013-02-25 01:30:00,46.2,22.6,30.26,NNW,335,0.0,4.8,39,0.00,,CLR,0.00,VWS V14.01,2013-02-25 09:30:00,
2013-02-25 01:40:00,46.0,22.5,30.26,North,356,3.8,4.8,39,0.00,,CLR,0.00,VWS V14.01,2013-02-25 09:40:00,
2013-02-25 01:50:00,46.2,22.0,30.26,NNW,343,3.8,5.4,38,0.00,,CLR,0.00,VWS V14.01,2013-02-25 09:50:00,
2013-02-25 02:00:00,46.8,21.9,30.26,North,351,4.8,7.0,37,0.00,,CLR,0.00,VWS V14.01,2013-02-25 10:00:00,
2013-02-25 02:10:00,47.1,22.2,30.23,North,0,4.3,6.4,37,0.00,,CLR,0.00,VWS V14.01,2013-02-25 10:10:00,
2013-02-25 02:20:00,47.5,21.2,30.23,NNE,12,4.8,7.0,35,0.00,,CLR,0.00,VWS V14.01,2013-02-25 10:20:00,
2013-02-25 02:30:00,48.0,21.0,30.23,NNE,25,2.7,7.5,34,0.00,,CLR,0.00,VWS V14.01,2013-02-25 10:30:00,
2013-02-25 02:40:00,48.0,21.0,30.23,North,10,0.0,5.9,34,0.00,,CLR,0.00,VWS V14.01,2013-02-25 10:40:00,
2013-02-25 02:50:00,47.8,20.9,30.23,ENE,67,4.3,4.3,34,0.00,,CLR,0.00,VWS V14.01,2013-02-25 10:50:00,
2013-02-25 03:00:00,47.5,20.5,30.23,NNE,20,4.3,4.3,34,0.00,,CLR,0.00,VWS V14.01,2013-02-25 11:00:00,
2013-02-25 03:10:00,47.1,19.5,30.23,North,7,3.2,4.3,33,0.00,,CLR,0.00,VWS V14.01,2013-02-25 11:10:00,
2013-02-25 03:20:00,47.3,19.0,30.23,North,0,5.9,7.0,32,0.00,,CLR,0.00,VWS V14.01,2013-02-25 11:20:00,
2013-02-25 03:30:00,48.0,18.8,30.23,North,11,5.9,9.7,31,0.00,,CLR,0.00,VWS V14.01,2013-02-25 11:30:00,
2013-02-25 03:40:00,48.2,19.0,30.23,NNE,17,2.7,7.5,31,0.00,,CLR,0.00,VWS V14.01,2013-02-25 11:40:00,
2013-02-25 03:50:00,48.0,18.8,30.23,North,7,3.2,4.8,31,0.00,,CLR,0.00,VWS V14.01,2013-02-25 11:50:00,
2013-02-25 04:00:00,47.8,18.7,30.23,North,10,2.7,4.8,31,0.00,,CLR,0.00,VWS V14.01,2013-02-25 12:00:00,
2013-02-25 04:10:00,47.3,19.0,30.23,NNE,22,0.0,4.3,32,0.00,,CLR,0.00,VWS V14.01,2013-02-25 12:10:00,
2013-02-25 04:20:00,47.1,18.1,30.23,North,351,7.5,7.5,31,0.00,,CLR,0.00,VWS V14.01,2013-02-25 12:20:00,
2013-02-25 04:30:00,47.8,18.7,30.23,North,0,7.0,7.5,31,0.00,,CLR,0.00,VWS V14.01,2013-02-25 12:30:00,
2013-02-25 04:40:00,48.6,18.5,30.23,North,8,7.0,10.5,30,0.00,,CLR,0.00,VWS V14.01,2013-02-25 12:40:00,
2013-02-25 05:00:00,49.6,18.7,30.23,North,0,4.8,10.5,29,0.00,,CLR,0.00,VWS V14.01,2013-02-25 13:00:00,
2013-02-25 05:10:00,49.6,18.7,30.23,North,9,8.6,10.5,29,0.00,,CLR,0.00,VWS V14.01,2013-02-25 13:10:00,
2013-02-25 05:20:00,49.8,18.9,30.23,North,3,5.4,10.5,29,0.00,,CLR,0.00,VWS V14.01,2013-02-25 13:20:00,
2013-02-25 05:30:00,49.8,18.9,30.23,North,9,6.4,9.9,29,0.00,,CLR,0.00,VWS V14.01,2013-02-25 13:30:00,
2013-02-25 05:40:00,49.8,18.0,30.23,NNE,17,6.4,9.9,28,0.00,,CLR,0.00,VWS V14.01,2013-02-25 13:40:00,
2013-02-25 05:50:00,49.8,18.0,30.23,NNE,13,6.4,10.5,28,0.00,,CLR,0.00,VWS V14.01,2013-02-25 13:50:00,
2013-02-25 06:00:00,49.8,18.0,30.23,NNE,20,5.9,9.7,28,0.00,,CLR,0.00,VWS V14.01,2013-02-25 14:00:00,
2013-02-25 06:20:00,50.0,18.2,30.23,North,3,5.9,13.2,28,0.00,,CLR,0.00,VWS V14.01,2013-02-25 14:20:00,
2013-02-25 06:30:00,50.4,18.5,30.23,NNE,16,6.4,11.5,28,0.00,,CLR,0.00,VWS V14.01,2013-02-25 14:30:00,
2013-02-25 06:40:00,50.4,17.7,30.23,North,9,7.0,12.6,27,0.00,,CLR,0.00,VWS V14.01,2013-02-25 14:40:00,
2013-02-25 06:50:00,50.2,18.4,30.23,NNE,12,7.0,12.6,28,0.00,,CLR,0.00,VWS V14.01,2013-02-25 14:50:00,
2013-02-25 07:00:00,49.6,17.9,30.23,NNE,26,7.0,9.9,28,0.00,,CLR,0.00,VWS V14.01,2013-02-25 15:00:00,
2013-02-25 07:10:00,50.2,18.4,30.23,North,356,6.4,12.6,28,0.00,,CLR,0.00,VWS V14.01,2013-02-25 15:10:00,
2013-02-25 07:20:00,50.9,19.0,30.23,North,10,7.5,13.2,28,0.00,,CLR,0.00,VWS V14.01,2013-02-25 15:20:00,
2013-02-25 07:30:00,51.4,19.4,30.23,NNE,17,4.3,14.8,28,0.00,,CLR,0.00,VWS V14.01,2013-02-25 15:30:00,
2013-02-25 07:40:00,51.6,18.8,30.26,NNW,343,7.0,13.7,27,0.00,,CLR,0.00,VWS V14.01,2013-02-25 15:40:00,
2013-02-25 07:50:00,52.2,19.2,30.26,NNE,30,7.5,12.6,27,0.00,,CLR,0.00,VWS V14.01,2013-02-25 15:50:00,
2013-02-25 08:00:00,52.9,19.8,30.26,NNE,30,13.7,13.7,27,0.00,,CLR,0.00,VWS V14.01,2013-02-25 16:00:00,
2013-02-25 08:10:00,53.4,20.3,30.26,North,0,6.4,13.7,27,0.00,,CLR,0.00,VWS V14.01,2013-02-25 16:10:00,
2013-02-25 08:20:00,53.8,20.6,30.26,NNE,22,10.5,14.2,27,0.00,,CLR,0.00,VWS V14.01,2013-02-25 16:20:00,
2013-02-25 08:30:00,54.1,20.9,30.26,NNE,24,10.5,12.6,27,0.00,,CLR,0.00,VWS V14.01,2013-02-25 16:30:00,
2013-02-25 08:40:00,54.9,21.5,30.26,ENE,64,9.1,15.3,27,0.00,,CLR,0.00,VWS V14.01,2013-02-25 16:40:00,
2013-02-25 08:50:00,55.8,21.4,30.26,NE,41,9.7,13.2,26,0.00,,CLR,0.00,VWS V14.01,2013-02-25 16:50:00,
2013-02-25 09:00:00,56.1,22.6,30.26,NE,50,10.5,11.5,27,0.00,,CLR,0.00,VWS V14.01,2013-02-25 17:00:00,
2013-02-25 09:10:00,56.5,22.9,30.23,NE,48,9.1,13.2,27,0.00,,CLR,0.00,VWS V14.01,2013-02-25 17:10:00,
2013-02-25 09:20:00,56.7,23.1,30.23,NE,51,9.9,15.3,27,0.00,,CLR,0.00,VWS V14.01,2013-02-25 17:20:00,
2013-02-25 09:30:00,57.2,22.6,30.23,NNE,32,9.9,12.6,26,0.00,,CLR,0.00,VWS V14.01,2013-02-25 17:30:00,
2013-02-25 09:40:00,57.9,23.3,30.23,North,0,7.5,9.9,26,0.00,,CLR,0.00,VWS V14.01,2013-02-25 17:40:00,
2013-02-25 09:50:00,58.5,23.7,30.23,NE,48,4.3,9.1,26,0.00,,CLR,0.00,VWS V14.01,2013-02-25 17:50:00,
2013-02-25 10:00:00,58.8,24.0,30.23,NNE,28,4.3,7.0,26,0.00,,CLR,0.00,VWS V14.01,2013-02-25 18:00:00,
2013-02-25 10:10:00,59.4,24.5,30.23,ENE,64,0.0,4.3,26,0.00,,CLR,0.00,VWS V14.01,2013-02-25 18:10:00,
2013-02-25 10:20:00,59.9,25.0,30.23,ESE,104,0.0,4.8,26,0.00,,CLR,0.00,VWS V14.01,2013-02-25 18:20:00,
2013-02-25 10:30:00,60.8,24.8,30.23,SE,124,0.0,4.8,25,0.00,,CLR,0.00,VWS V14.01,2013-02-25 18:30:00,
2013-02-25 10:40:00,61.9,25.7,30.23,ESE,107,0.0,4.8,25,0.00,,CLR,0.00,VWS V14.01,2013-02-25 18:40:00,
2013-02-25 10:50:00,62.2,32.8,30.23,West,280,7.0,10.5,33,0.00,,CLR,0.00,VWS V14.01,2013-02-25 18:50:00,
2013-02-25 11:00:00,62.8,34.0,30.23,SSW,193,5.9,9.7,34,0.00,,CLR,0.00,VWS V14.01,2013-02-25 19:00:00,
2013-02-25 11:10:00,63.0,33.4,30.23,SSW,211,6.4,10.5,33,0.00,,CLR,0.00,VWS V14.01,2013-02-25 19:10:00,
2013-02-25 11:20:00,63.5,33.9,30.23,WSW,243,4.3,9.9,33,0.00,,CLR,0.00,VWS V14.01,2013-02-25 19:20:00,
2013-02-25 11:30:00,63.7,32.5,30.23,WNW,282,4.3,9.7,31,0.00,,CLR,0.00,VWS V14.01,2013-02-25 19:30:00,
2013-02-25 11:40:00,64.0,30.3,30.23,South,175,7.0,9.9,28,0.00,,CLR,0.00,VWS V14.01,2013-02-25 19:40:00,
2013-02-25 11:50:00,64.8,30.0,30.20,SW,222,2.7,10.5,27,0.00,,CLR,0.00,VWS V14.01,2013-02-25 19:50:00,
2013-02-25 12:00:00,65.1,29.4,30.20,SSW,202,9.9,11.0,26,0.00,,CLR,0.00,VWS V14.01,2013-02-25 20:00:00,
2013-02-25 12:10:00,65.3,30.5,30.20,WSW,246,9.7,12.1,27,0.00,,CLR,0.00,VWS V14.01,2013-02-25 20:10:00,
2013-02-25 12:20:00,65.1,29.4,30.20,SW,219,4.8,12.6,26,0.00,,CLR,0.00,VWS V14.01,2013-02-25 20:20:00,
2013-02-25 12:30:00,65.7,29.9,30.20,SSE,152,3.8,10.5,26,0.00,,CLR,0.00,VWS V14.01,2013-02-25 20:30:00,
2013-02-25 12:40:00,65.8,30.0,30.20,SSW,201,7.0,12.1,26,0.00,,CLR,0.00,VWS V14.01,2013-02-25 20:40:00,
2013-02-25 12:50:00,65.8,29.1,30.20,SW,233,10.5,13.2,25,0.00,,CLR,0.00,VWS V14.01,2013-02-25 20:50:00,
2013-02-25 13:00:00,65.8,29.1,30.20,South,179,9.1,13.2,25,0.00,,CLR,0.00,VWS V14.01,2013-02-25 21:00:00,
2013-02-25 13:10:00,66.0,29.2,30.17,SW,215,4.8,12.1,25,0.00,,CLR,0.00,VWS V14.01,2013-02-25 21:10:00,
2013-02-25 13:20:00,66.7,28.8,30.17,WSW,258,3.8,10.5,24,0.00,,CLR,0.00,VWS V14.01,2013-02-25 21:20:00,
2013-02-25 13:30:00,66.6,27.6,30.17,SW,223,13.2,13.2,23,0.00,,CLR,0.00,VWS V14.01,2013-02-25 21:30:00,
2013-02-25 13:40:00,66.4,28.5,30.17,SW,229,6.4,13.2,24,0.00,,CLR,0.00,VWS V14.01,2013-02-25 21:40:00,
2013-02-25 13:50:00,66.2,28.4,30.17,SW,215,9.7,12.6,24,0.00,,CLR,0.00,VWS V14.01,2013-02-25 21:50:00,
2013-02-25 14:00:00,65.7,28.9,30.17,SSW,201,3.8,10.5,25,0.00,,CLR,0.00,VWS V14.01,2013-02-25 22:00:00,
2013-02-25 14:10:00,66.4,29.5,30.17,SSW,202,8.6,9.1,25,0.00,,CLR,0.00,VWS V14.01,2013-02-25 22:10:00,
2013-02-25 14:20:00,66.4,31.4,30.17,SW,215,4.8,10.5,27,0.00,,CLR,0.00,VWS V14.01,2013-02-25 22:20:00,
2013-02-25 14:30:00,66.2,33.0,30.17,SSW,193,7.5,12.1,29,0.00,,CLR,0.00,VWS V14.01,2013-02-25 22:30:00,
2013-02-25 14:40:00,65.8,35.2,30.17,SW,223,6.4,9.9,32,0.00,,CLR,0.00,VWS V14.01,2013-02-25 22:40:00,
2013-02-25 14:50:00,66.0,36.1,30.17,SSE,161,6.4,10.5,33,0.00,,CLR,0.00,VWS V14.01,2013-02-25 22:50:00,
2013-02-25 15:00:00,66.0,35.3,30.17,West,280,9.1,9.9,32,0.00,,CLR,0.00,VWS V14.01,2013-02-25 23:00:00,
2013-02-25 15:10:00,65.7,35.0,30.17,SSE,149,9.9,10.5,32,0.00,,CLR,0.00,VWS V14.01,2013-02-25 23:10:00,
2013-02-25 15:20:00,64.8,34.2,30.14,West,261,6.4,12.1,32,0.00,,CLR,0.00,VWS V14.01,2013-02-25 23:20:00,
2013-02-25 15:30:00,64.2,35.3,30.14,WSW,246,9.1,11.5,34,0.00,,CLR,0.00,VWS V14.01,2013-02-25 23:30:00,
2013-02-25 15:40:00,63.9,35.0,30.14,SW,220,5.4,10.5,34,0.00,,CLR,0.00,VWS V14.01,2013-02-25 23:40:00,
2013-02-25 15:50:00,63.5,34.7,30.14,SW,221,3.2,8.1,34,0.00,,CLR,0.00,VWS V14.01,2013-02-25 23:50:00,
2013-02-25 16:00:00,63.5,36.1,30.14,WSW,240,7.0,9.9,36,0.00,,CLR,0.00,VWS V14.01,2013-02-26 00:00:00,
2013-02-25 16:10:00,63.0,36.3,30.14,SW,229,2.7,7.5,37,0.00,,CLR,0.00,VWS V14.01,2013-02-26 00:10:00,
2013-02-25 16:20:00,62.2,37.6,30.14,South,183,4.3,8.6,40,0.00,,CLR,0.00,VWS V14.01,2013-02-26 00:20:00,
2013-02-25 16:30:00,61.9,38.6,30.14,SW,232,4.8,7.5,42,0.00,,CLR,0.00,VWS V14.01,2013-02-26 00:30:00,
2013-02-25 16:40:00,61.2,39.1,30.11,South,181,5.9,7.5,44,0.00,,CLR,0.00,VWS V14.01,2013-02-26 00:40:00,
2013-02-25 16:50:00,60.6,40.3,30.11,South,181,3.2,6.4,47,0.00,,CLR,0.00,VWS V14.01,2013-02-26 00:50:00,
2013-02-25 17:00:00,60.3,41.0,30.11,South,184,3.8,9.1,49,0.00,,CLR,0.00,VWS V14.01,2013-02-26 01:00:00,
2013-02-25 17:10:00,59.4,41.8,30.11,South,182,2.7,7.5,52,0.00,,CLR,0.00,VWS V14.01,2013-02-26 01:10:00,
2013-02-25 17:20:00,58.5,42.4,30.11,South,171,3.2,6.4,55,0.00,,CLR,0.00,VWS V14.01,2013-02-26 01:20:00,
2013-02-25 17:30:00,57.9,42.8,30.11,SW,215,3.2,5.4,57,0.00,,CLR,0.00,VWS V14.01,2013-02-26 01:30:00,
2013-02-25 17:40:00,57.4,43.2,30.11,SSE,151,0.0,4.8,59,0.00,,CLR,0.00,VWS V14.01,2013-02-26 01:40:00,
2013-02-25 17:50:00,57.0,44.1,30.11,SSW,211,3.2,6.4,62,0.00,,CLR,0.00,VWS V14.01,2013-02-26 01:50:00,
2013-02-25 18:00:00,56.5,44.0,30.11,SSE,160,4.3,5.9,63,0.00,,CLR,0.00,VWS V14.01,2013-02-26 02:00:00,
2013-02-25 18:10:00,56.1,44.1,30.11,SSE,167,0.0,4.8,64,0.00,,CLR,0.00,VWS V14.01,2013-02-26 02:10:00,
2013-02-25 18:20:00,55.8,44.2,30.11,SSE,167,0.0,0.0,65,0.00,,CLR,0.00,VWS V14.01,2013-02-26 02:20:00,
2013-02-25 18:30:00,55.6,44.0,30.11,SSE,166,0.0,0.0,65,0.00,,CLR,0.00,VWS V14.01,2013-02-26 02:30:00,
2013-02-25 18:40:00,55.2,44.1,30.11,SSE,166,0.0,0.0,66,0.00,,CLR,0.00,VWS V14.01,2013-02-26 02:40:00,
2013-02-25 18:50:00,54.7,44.0,30.11,SSE,166,0.0,0.0,67,0.00,,CLR,0.00,VWS V14.01,2013-02-26 02:50:00,
2013-02-25 19:00:00,54.1,43.4,30.11,SSE,166,0.0,2.7,67,0.00,,CLR,0.00,VWS V14.01,2013-02-26 03:00:00,
2013-02-25 19:10:00,53.2,43.0,30.11,SSE,167,0.0,0.0,68,0.00,,CLR,0.00,VWS V14.01,2013-02-26 03:10:00,
2013-02-25 19:20:00,52.7,42.5,30.11,SSE,166,0.0,0.0,68,0.00,,CLR,0.00,VWS V14.01,2013-02-26 03:20:00,
2013-02-25 19:30:00,52.3,42.5,30.11,SSE,166,0.0,0.0,69,0.00,,CLR,0.00,VWS V14.01,2013-02-26 03:30:00,
2013-02-25 19:40:00,51.8,42.0,30.11,SSE,166,2.7,2.7,69,0.00,,CLR,0.00,VWS V14.01,2013-02-26 03:40:00,
2013-02-25 19:50:00,51.3,41.8,30.11,East,83,0.0,3.8,70,0.00,,CLR,0.00,VWS V14.01,2013-02-26 03:50:00,
2013-02-25 20:00:00,50.7,41.7,30.11,North,356,4.3,4.3,71,0.00,,CLR,0.00,VWS V14.01,2013-02-26 04:00:00,
2013-02-25 20:10:00,50.4,41.7,30.11,North,1,0.0,4.8,72,0.00,,CLR,0.00,VWS V14.01,2013-02-26 04:10:00,
2013-02-25 20:20:00,50.2,42.2,30.14,North,351,0.0,5.9,74,0.00,,CLR,0.00,VWS V14.01,2013-02-26 04:20:00,
2013-02-25 20:30:00,50.0,42.0,30.14,North,351,0.0,3.8,74,0.00,,CLR,0.00,VWS V14.01,2013-02-26 04:30:00,
2013-02-25 20:40:00,49.8,41.9,30.11,North,351,0.0,0.0,74,0.00,,CLR,0.00,VWS V14.01,2013-02-26 04:40:00,
2013-02-25 20:50:00,49.5,41.5,30.11,North,351,3.2,3.8,74,0.00,,CLR,0.00,VWS V14.01,2013-02-26 04:50:00,
2013-02-25 21:00:00,49.3,41.4,30.11,North,351,0.0,3.2,74,0.00,,CLR,0.00,VWS V14.01,2013-02-26 05:00:00,
2013-02-25 21:10:00,48.9,41.0,30.11,North,351,0.0,0.0,74,0.00,,CLR,0.00,VWS V14.01,2013-02-26 05:10:00,
2013-02-25 21:20:00,48.7,40.5,30.14,North,351,0.0,0.0,73,0.00,,CLR,0.00,VWS V14.01,2013-02-26 05:20:00,
2013-02-25 21:30:00,48.2,40.0,30.14,North,11,0.0,0.0,73,0.00,,CLR,0.00,VWS V14.01,2013-02-26 05:30:00,
2013-02-25 21:40:00,47.8,39.6,30.14,North,11,0.0,0.0,73,0.00,,CLR,0.00,VWS V14.01,2013-02-26 05:40:00,
2013-02-25 21:50:00,47.7,39.1,30.14,North,11,0.0,0.0,72,0.00,,CLR,0.00,VWS V14.01,2013-02-26 05:50:00,
2013-02-25 22:00:00,47.5,39.3,30.14,NNE,24,4.3,4.8,73,0.00,,CLR,0.00,VWS V14.01,2013-02-26 06:00:00,
2013-02-25 22:10:00,47.3,39.1,30.14,NNE,24,0.0,4.3,73,0.00,,CLR,0.00,VWS V14.01,2013-02-26 06:10:00,
2013-02-25 22:20:00,47.1,38.9,30.14,NNE,24,0.0,3.2,73,0.00,,CLR,0.00,VWS V14.01,2013-02-26 06:20:00,
2013-02-25 22:30:00,46.8,38.6,30.14,NNE,32,6.4,6.4,73,0.00,,CLR,0.00,VWS V14.01,2013-02-26 06:30:00,
2013-02-25 22:40:00,46.2,38.1,30.14,NNE,29,4.3,6.4,73,0.00,,CLR,0.00,VWS V14.01,2013-02-26 06:40:00,
2013-02-25 22:50:00,45.7,37.2,30.14,NE,52,2.7,7.0,72,0.00,,CLR,0.00,VWS V14.01,2013-02-26 06:50:00,
2013-02-25 23:00:00,45.7,37.5,30.14,NNE,23,5.9,6.4,73,0.00,,CLR,0.00,VWS V14.01,2013-02-26 07:00:00,
2013-02-25 23:10:00,46.0,37.5,30.14,NE,54,4.3,5.9,72,0.00,,CLR,0.00,VWS V14.01,2013-02-26 07:10:00,
2013-02-25 23:20:00,46.2,38.4,30.11,ENE,64,0.0,4.8,74,0.00,,CLR,0.00,VWS V14.01,2013-02-26 07:20:00,
2013-02-25 23:30:00,46.2,38.8,30.11,ENE,60,0.0,4.8,75,0.00,,CLR,0.00,VWS V14.01,2013-02-26 07:30:00,
2013-02-25 23:40:00,45.9,37.7,30.11,North,6,4.3,4.8,73,0.00,,CLR,0.00,VWS V14.01,2013-02-26 07:40:00,
2013-02-25 23:50:00,45.9,36.6,30.11,NNE,17,0.0,4.8,70,0.00,,CLR,0.00,VWS V14.01,2013-02-26 07:50:00,